Time;durP1;ratioP1;P1;durP2;ratioP2;P2;SDS_P1;SDS_P2;PMS_P1;PMS_P2;Temp;Humidity;BMP_temperature;BMP_pressure;BME280_temperature;BME280_humidity;BME280_pressure;Samples;Min_cycle;Max_cycle;Signal;HPM_P1;HPM_P2
2023/10/17 00:02:53;;;;;;;1.77;1.60;;;;;;;;;;5062933;28;20076;-57
2023/10/17 00:05:20;;;;;;;2.20;1.70;;;;;;;;;;5060760;28;20046;-58
2023/10/17 00:07:46;;;;;;;3.75;1.60;;;;;;;;;;5062340;28;20043;-57
2023/10/17 00:10:18;;;;;;;1.50;1.40;;;;;;;;;;5062567;28;20037;-57
2023/10/17 00:13:08;;;;;;;1.75;1.60;;;;;;;;;;5059094;28;20060;-58
2023/10/17 00:15:37;;;;;;;1.48;1.38;;;;;;;;;;5062701;28;20079;-58
2023/10/17 00:18:11;;;;;;;2.05;1.85;;;;;;;;;;5063571;28;20087;-58
2023/10/17 00:20:37;;;;;;;1.70;1.60;;;;;;;;;;5060965;28;20101;-57
2023/10/17 00:23:07;;;;;;;1.50;1.40;;;;;;;;;;5063891;28;20059;-57
2023/10/17 00:25:33;;;;;;;1.88;1.30;;;;;;;;;;5064434;28;20048;-57
2023/10/17 00:27:59;;;;;;;1.85;1.60;;;;;;;;;;5058972;28;20745;-57
2023/10/17 00:30:29;;;;;;;1.70;1.60;;;;;;;;;;5045931;28;20147;-57
2023/10/17 00:32:55;;;;;;;2.22;1.70;;;;;;;;;;5063490;28;20534;-58
2023/10/17 00:35:25;;;;;;;1.38;1.27;;;;;;;;;;5063181;28;20040;-58
2023/10/17 00:38:04;;;;;;;1.70;1.60;;;;;;;;;;5061802;28;20040;-57
2023/10/17 00:43:16;;;;;;;1.30;1.20;;;;;;;;;;5062731;28;20049;-57
2023/10/17 00:45:45;;;;;;;1.73;1.60;;;;;;;;;;5063636;28;20108;-57
2023/10/17 00:48:20;;;;;;;2.17;1.90;;;;;;;;;;5062549;28;20036;-57
2023/10/17 00:50:57;;;;;;;1.60;1.50;;;;;;;;;;5061407;28;20496;-56
2023/10/17 00:53:24;;;;;;;1.98;1.77;;;;;;;;;;5064019;28;20109;-58
2023/10/17 00:55:55;;;;;;;1.77;1.60;;;;;;;;;;5063777;28;20070;-58
2023/10/17 00:58:23;;;;;;;1.88;1.77;;;;;;;;;;5064747;28;20055;-58
2023/10/17 01:00:53;;;;;;;1.65;1.55;;;;;;;;;;5064334;28;20083;-58
2023/10/17 01:03:20;;;;;;;1.90;1.80;;;;;;;;;;5062782;28;20056;-57
2023/10/17 01:05:57;;;;;;;2.10;1.80;;;;;;;;;;5064575;28;20115;-57
2023/10/17 01:08:39;;;;;;;2.10;1.90;;;;;;;;;;5063329;28;20048;-57
2023/10/17 01:11:09;;;;;;;1.73;1.63;;;;;;;;;;5059756;28;20033;-57
2023/10/17 01:13:39;;;;;;;2.00;1.80;;;;;;;;;;5068974;28;20060;-58
2023/10/17 01:16:07;;;;;;;1.75;1.65;;;;;;;;;;5067854;28;20413;-58
2023/10/17 01:18:34;;;;;;;2.38;1.65;;;;;;;;;;5063733;28;20775;-57
2023/10/17 01:21:00;;;;;;;1.95;1.85;;;;;;;;;;5061481;28;20045;-57
2023/10/17 01:23:29;;;;;;;2.47;1.90;;;;;;;;;;5067182;28;20040;-57
2023/10/17 01:25:56;;;;;;;1.83;1.73;;;;;;;;;;5068471;28;20123;-57
2023/10/17 01:28:22;;;;;;;2.58;2.20;;;;;;;;;;5067556;28;20097;-57
2023/10/17 01:30:52;;;;;;;1.73;1.63;;;;;;;;;;5067150;28;20040;-58
2023/10/17 01:33:18;;;;;;;2.25;2.05;;;;;;;;;;5067890;28;20044;-58
2023/10/17 01:35:45;;;;;;;1.70;1.60;;;;;;;;;;5066846;28;20040;-57
2023/10/17 01:38:13;;;;;;;1.58;1.48;;;;;;;;;;5064809;28;20047;-58
2023/10/17 01:40:39;;;;;;;1.40;1.30;;;;;;;;;;5066191;28;20040;-56
2023/10/17 01:43:05;;;;;;;1.75;1.65;;;;;;;;;;5065522;28;20040;-57
2023/10/17 01:45:37;;;;;;;2.10;1.70;;;;;;;;;;5065282;28;20070;-57
2023/10/17 01:48:04;;;;;;;2.33;1.60;;;;;;;;;;5066049;28;20698;-57
2023/10/17 01:50:32;;;;;;;1.35;1.25;;;;;;;;;;5065360;28;20400;-58
2023/10/17 01:53:00;;;;;;;1.55;1.45;;;;;;;;;;5065576;28;20039;-57
2023/10/17 01:55:29;;;;;;;1.63;1.52;;;;;;;;;;5065918;28;20036;-57
2023/10/17 01:57:57;;;;;;;1.33;1.23;;;;;;;;;;5064085;28;20033;-58
2023/10/17 02:02:58;;;;;;;1.10;1.10;;;;;;;;;;5062872;28;20056;-57
2023/10/17 02:05:24;;;;;;;1.27;1.17;;;;;;;;;;5064685;28;20047;-57
2023/10/17 02:07:51;;;;;;;1.73;1.35;;;;;;;;;;5064188;28;20040;-57
2023/10/17 02:10:21;;;;;;;1.30;1.20;;;;;;;;;;5064751;28;20040;-57
2023/10/17 02:12:48;;;;;;;1.75;1.30;;;;;;;;;;5063500;28;20070;-57
2023/10/17 02:15:19;;;;;;;1.70;1.60;;;;;;;;;;5066529;28;20413;-58
2023/10/17 02:17:46;;;;;;;1.45;1.30;;;;;;;;;;5066779;28;20037;-58
2023/10/17 02:20:29;;;;;;;1.40;1.20;;;;;;;;;;5064930;28;20082;-57
2023/10/17 02:23:06;;;;;;;1.60;1.50;;;;;;;;;;5065224;28;20056;-57
2023/10/17 02:25:36;;;;;;;1.42;1.33;;;;;;;;;;5057867;28;20699;-57
2023/10/17 02:28:03;;;;;;;1.63;1.52;;;;;;;;;;5066102;28;20064;-57
2023/10/17 02:30:29;;;;;;;1.95;1.45;;;;;;;;;;5066459;28;20119;-57
2023/10/17 02:32:55;;;;;;;1.40;1.30;;;;;;;;;;5062690;28;20083;-57
2023/10/17 02:35:41;;;;;;;1.38;1.27;;;;;;;;;;5065485;28;20052;-58
2023/10/17 02:38:08;;;;;;;2.15;1.02;;;;;;;;;;5047319;28;20197;-58
2023/10/17 02:40:34;;;;;;;1.48;1.38;;;;;;;;;;5046506;28;20048;-59
2023/10/17 02:43:01;;;;;;;1.60;1.50;;;;;;;;;;5062459;28;20064;-59
2023/10/17 02:45:27;;;;;;;1.48;1.38;;;;;;;;;;5063204;28;20218;-59
2023/10/17 02:47:53;;;;;;;1.10;1.00;;;;;;;;;;5044999;28;20539;-58
2023/10/17 02:50:34;;;;;;;1.50;1.40;;;;;;;;;;5065136;28;20048;-59
2023/10/17 02:53:00;;;;;;;1.50;1.40;;;;;;;;;;5064025;28;20049;-59
2023/10/17 02:55:28;;;;;;;1.30;1.20;;;;;;;;;;5065167;28;20040;-59
2023/10/17 02:57:54;;;;;;;1.60;1.42;;;;;;;;;;5064711;28;20181;-58
2023/10/17 03:00:33;;;;;;;1.25;1.15;;;;;;;;;;5064003;28;20044;-59
2023/10/17 03:02:59;;;;;;;1.25;1.13;;;;;;;;;;5062667;28;20056;-59
2023/10/17 03:05:29;;;;;;;1.45;1.30;;;;;;;;;;5065142;28;20083;-59
2023/10/17 03:07:55;;;;;;;1.48;1.15;;;;;;;;;;5064481;28;20430;-58
2023/10/17 03:10:36;;;;;;;1.30;1.20;;;;;;;;;;5065503;28;20071;-59
2023/10/17 03:13:05;;;;;;;1.35;1.13;;;;;;;;;;5045890;28;20044;-60
2023/10/17 03:15:34;;;;;;;1.30;1.20;;;;;;;;;;5061007;28;20115;-59
2023/10/17 03:18:00;;;;;;;1.40;1.25;;;;;;;;;;5060469;28;20056;-58
2023/10/17 03:20:36;;;;;;;1.20;1.10;;;;;;;;;;5061923;28;20033;-59
2023/10/17 03:23:08;;;;;;;1.52;1.38;;;;;;;;;;5060985;28;20052;-59
2023/10/17 03:25:37;;;;;;;1.30;1.20;;;;;;;;;;5044096;28;20040;-59
2023/10/17 03:28:13;;;;;;;1.38;1.27;;;;;;;;;;5064326;28;20075;-60
2023/10/17 03:30:39;;;;;;;1.42;1.10;;;;;;;;;;5062573;28;20102;-58
2023/10/17 03:33:13;;;;;;;1.90;1.20;;;;;;;;;;5063428;28;20071;-59
2023/10/17 03:35:49;;;;;;;1.40;1.27;;;;;;;;;;5064423;28;20102;-58
2023/10/17 03:38:15;;;;;;;1.42;0.93;;;;;;;;;;5063460;28;20082;-59
2023/10/17 03:40:50;;;;;;;1.35;1.20;;;;;;;;;;5064224;28;20094;-58
2023/10/17 03:43:21;;;;;;;1.45;1.35;;;;;;;;;;5062469;28;20075;-59
2023/10/17 03:45:52;;;;;;;1.42;1.33;;;;;;;;;;5062902;28;20046;-59
2023/10/17 03:48:20;;;;;;;1.45;1.35;;;;;;;;;;5063007;28;20528;-59
2023/10/17 03:53:18;;;;;;;1.33;1.23;;;;;;;;;;5063885;28;20101;-58
2023/10/17 03:55:44;;;;;;;1.33;1.23;;;;;;;;;;5062479;28;20127;-58
2023/10/17 04:00:48;;;;;;;1.70;1.30;;;;;;;;;;5064492;28;20582;-59
2023/10/17 04:09:17;;;;;;;1.42;1.33;;;;;;;;;;5065219;28;20040;-58
2023/10/17 04:11:27;;;;;;;1.67;1.33;;;;;;;;;;5056517;28;20128;-57
2023/10/17 04:13:54;;;;;;;1.27;1.17;;;;;;;;;;5063837;28;21223;-57
2023/10/17 04:16:33;;;;;;;1.42;1.20;;;;;;;;;;5065840;28;20037;-58
2023/10/17 04:19:18;;;;;;;1.48;1.38;;;;;;;;;;5063865;28;20118;-57
2023/10/17 04:24:27;;;;;;;1.58;1.48;;;;;;;;;;5063623;28;20044;-57
2023/10/17 04:27:06;;;;;;;1.55;1.20;;;;;;;;;;5062098;28;20484;-57
2023/10/17 04:29:35;;;;;;;1.77;1.35;;;;;;;;;;5046645;28;20049;-58
2023/10/17 04:32:02;;;;;;;1.30;1.20;;;;;;;;;;5063875;28;20032;-57
2023/10/17 04:34:32;;;;;;;1.23;1.13;;;;;;;;;;5062269;28;20507;-57
2023/10/17 04:37:04;;;;;;;1.42;1.33;;;;;;;;;;5061529;28;20044;-58
2023/10/17 04:44:50;;;;;;;1.83;1.50;;;;;;;;;;5064169;28;20071;-57
2023/10/17 04:49:54;;;;;;;;;;;;;;;;;;5069929;28;20036;-57
2023/10/17 04:52:44;;;;;;;1.52;1.42;;;;;;;;;;5068153;28;19956;-57
2023/10/17 04:55:30;;;;;;;1.20;1.10;;;;;;;;;;5068845;28;20041;-58
2023/10/17 04:57:59;;;;;;;1.38;1.27;;;;;;;;;;5065792;28;20649;-57
2023/10/17 05:03:43;;;;;;;1.48;1.05;;;;;;;;;;5028362;28;20048;-58
2023/10/17 05:09:25;;;;;;;1.30;1.20;;;;;;;;;;5044313;28;20032;-58
2023/10/17 06:18:00;;;;;;;0.90;0.90;;;;;;;;;;5062446;28;20036;-58
2023/10/17 06:21:06;;;;;;;0.70;0.70;;;;;;;;;;5060993;28;20028;-57
2023/10/17 06:26:46;;;;;;;0.80;0.80;;;;;;;;;;5061835;28;20040;-58
2023/10/17 06:34:16;;;;;;;0.68;0.68;;;;;;;;;;5059085;28;20090;-57
2023/10/17 06:36:43;;;;;;;0.70;0.70;;;;;;;;;;5064009;28;20036;-58
2023/10/17 06:39:19;;;;;;;0.80;0.80;;;;;;;;;;5063529;28;20055;-57
2023/10/17 06:41:50;;;;;;;1.45;1.00;;;;;;;;;;5064074;28;20534;-58
2023/10/17 06:44:23;;;;;;;1.03;1.00;;;;;;;;;;5062222;28;20122;-57
2023/10/17 06:46:55;;;;;;;;;;;;;;;;;;5060540;28;20097;-57
2023/10/17 06:54:42;;;;;;;1.48;0.90;;;;;;;;;;5061771;28;20049;-57
2023/10/17 06:57:23;;;;;;;0.73;0.73;;;;;;;;;;5065109;28;20404;-58
2023/10/17 07:00:01;;;;;;;0.60;0.60;;;;;;;;;;5042345;28;20060;-57
2023/10/17 07:02:41;;;;;;;1.27;1.00;;;;;;;;;;5061494;28;20504;-57
2023/10/17 07:05:08;;;;;;;0.75;0.55;;;;;;;;;;5060653;28;21055;-57
2023/10/17 07:07:41;;;;;;;1.05;0.82;;;;;;;;;;5059423;28;20070;-57
2023/10/17 07:10:37;;;;;;;0.85;0.80;;;;;;;;;;5060993;28;20059;-58
2023/10/17 07:13:22;;;;;;;0.68;0.60;;;;;;;;;;5057506;28;20052;-57
2023/10/17 07:15:52;;;;;;;0.73;0.73;;;;;;;;;;5043506;28;20103;-58
2023/10/17 07:23:41;;;;;;;0.77;0.60;;;;;;;;;;5054201;28;20037;-57
2023/10/17 07:26:17;;;;;;;0.45;0.40;;;;;;;;;;5062494;28;20055;-58
2023/10/17 07:28:43;;;;;;;0.85;0.70;;;;;;;;;;5060370;28;20081;-58
2023/10/17 07:31:12;;;;;;;0.75;0.70;;;;;;;;;;5061280;28;20043;-57
2023/10/17 07:33:42;;;;;;;0.43;0.43;;;;;;;;;;5063352;28;20481;-58
2023/10/17 07:36:15;;;;;;;0.52;0.52;;;;;;;;;;5060045;28;20048;-58
2023/10/17 07:38:45;;;;;;;0.88;0.88;;;;;;;;;;5060644;28;20037;-57
2023/10/17 07:41:14;;;;;;;0.65;0.60;;;;;;;;;;5061930;28;20051;-57
2023/10/17 07:43:44;;;;;;;0.75;0.60;;;;;;;;;;5061735;28;20040;-57
2023/10/17 07:46:16;;;;;;;0.80;0.75;;;;;;;;;;5064084;28;20044;-57
2023/10/17 07:48:48;;;;;;;1.13;1.10;;;;;;;;;;5061504;28;20032;-57
2023/10/17 07:51:14;;;;;;;;;;;;;;;;;;5062201;28;20037;-57
2023/10/17 07:53:45;;;;;;;1.20;1.10;;;;;;;;;;5063045;28;20573;-57
2023/10/17 07:56:20;;;;;;;1.13;1.02;;;;;;;;;;5062121;28;20044;-57
2023/10/17 07:58:46;;;;;;;1.55;1.27;;;;;;;;;;5061984;28;20424;-58
2023/10/17 08:01:15;;;;;;;2.22;1.42;;;;;;;;;;5063555;28;20668;-57
2023/10/17 08:03:49;;;;;;;4.05;1.45;;;;;;;;;;5059047;28;20105;-57
2023/10/17 08:06:20;;;;;;;2.67;1.80;;;;;;;;;;5056577;28;20075;-57
2023/10/17 08:08:46;;;;;;;1.80;1.70;;;;;;;;;;5053326;28;20036;-57
2023/10/17 08:11:26;;;;;;;2.65;2.25;;;;;;;;;;5050262;28;20138;-59
2023/10/17 08:13:55;;;;;;;2.38;1.90;;;;;;;;;;5067296;28;20474;-58
2023/10/17 08:16:32;;;;;;;1.75;1.60;;;;;;;;;;5065920;28;20044;-58
2023/10/17 08:20:00;;;;;;;1.70;1.60;;;;;;;;;;5062896;28;20123;-58
2023/10/17 08:24:33;;;;;;;2.15;1.60;;;;;;;;;;5068803;28;20040;-57
2023/10/17 08:29:49;;;;;;;0.98;0.98;;;;;;;;;;5064392;28;20048;-58
2023/10/17 08:34:47;;;;;;;;;;;;;;;;;;5064648;28;20458;-58
2023/10/17 08:37:26;;;;;;;2.05;1.80;;;;;;;;;;5065355;28;19981;-58
2023/10/17 08:39:52;;;;;;;3.28;2.00;;;;;;;;;;5076051;28;20405;-58
2023/10/17 08:42:30;;;;;;;1.60;1.50;;;;;;;;;;5065805;28;20606;-58
2023/10/17 08:44:56;;;;;;;2.55;1.95;;;;;;;;;;5064526;28;20072;-58
2023/10/17 08:47:29;;;;;;;2.35;2.15;;;;;;;;;;5063718;28;20047;-58
2023/10/17 08:49:55;;;;;;;2.42;1.83;;;;;;;;;;5060872;28;20090;-59
2023/10/17 08:52:23;;;;;;;2.55;1.98;;;;;;;;;;5057922;28;20042;-56
2023/10/17 08:54:49;;;;;;;1.75;1.40;;;;;;;;;;5044323;28;20048;-60
2023/10/17 08:57:15;;;;;;;2.00;1.88;;;;;;;;;;5063441;28;20080;-61
2023/10/17 09:02:29;;;;;;;3.63;2.20;;;;;;;;;;5063883;28;20073;-59
2023/10/17 09:05:05;;;;;;;1.60;1.50;;;;;;;;;;5060516;28;20643;-59
2023/10/17 09:07:31;;;;;;;2.50;2.30;;;;;;;;;;5064327;28;20497;-59
2023/10/17 09:10:04;;;;;;;2.58;1.70;;;;;;;;;;5062432;28;20032;-58
2023/10/17 09:12:42;;;;;;;1.60;1.50;;;;;;;;;;5061752;28;20051;-58
2023/10/17 09:15:27;;;;;;;2.35;2.15;;;;;;;;;;5061727;28;20233;-58
2023/10/17 09:18:06;;;;;;;1.10;1.00;;;;;;;;;;5061853;28;20606;-58
2023/10/17 09:20:36;;;;;;;1.95;1.75;;;;;;;;;;5064181;28;20116;-58
2023/10/17 09:23:02;;;;;;;1.85;1.60;;;;;;;;;;5064552;28;20077;-58
2023/10/17 09:25:30;;;;;;;1.88;1.42;;;;;;;;;;5065642;28;20527;-58
2023/10/17 09:27:57;;;;;;;1.60;1.50;;;;;;;;;;5064256;28;20119;-58
2023/10/17 09:30:26;;;;;;;1.27;1.17;;;;;;;;;;5045673;28;20063;-58
2023/10/17 09:32:53;;;;;;;1.40;1.30;;;;;;;;;;5061373;28;20048;-59
2023/10/17 09:35:19;;;;;;;1.38;1.27;;;;;;;;;;5042845;28;20344;-59
2023/10/17 09:37:50;;;;;;;2.42;1.50;;;;;;;;;;5065585;28;20074;-58
2023/10/17 09:40:25;;;;;;;3.05;0.95;;;;;;;;;;5062669;28;20040;-58
2023/10/17 09:42:51;;;;;;;1.50;1.25;;;;;;;;;;5060761;28;20045;-58
2023/10/17 09:45:17;;;;;;;0.95;0.93;;;;;;;;;;5063736;28;20086;-58
2023/10/17 09:47:44;;;;;;;1.02;0.93;;;;;;;;;;5063581;28;20037;-58
2023/10/17 09:50:16;;;;;;;0.98;0.90;;;;;;;;;;5064273;28;20500;-58
2023/10/17 09:52:45;;;;;;;1.60;1.10;;;;;;;;;;5046372;28;20492;-58
2023/10/17 09:55:13;;;;;;;1.83;1.10;;;;;;;;;;5062033;28;20091;-58
2023/10/17 09:57:41;;;;;;;1.48;1.20;;;;;;;;;;5062135;28;20102;-58
2023/10/17 10:00:14;;;;;;;0.85;0.85;;;;;;;;;;5059867;28;20076;-58
2023/10/17 10:02:41;;;;;;;1.83;1.40;;;;;;;;;;5062284;28;20094;-59
2023/10/17 10:05:29;;;;;;;1.45;1.35;;;;;;;;;;5062440;28;20124;-58
2023/10/17 10:08:05;;;;;;;2.20;1.85;;;;;;;;;;5044567;28;20044;-58
2023/10/17 10:10:46;;;;;;;3.22;1.48;;;;;;;;;;5059951;28;20065;-58
2023/10/17 10:13:15;;;;;;;3.30;1.48;;;;;;;;;;5063847;28;20049;-58
2023/10/17 10:15:50;;;;;;;2.70;1.73;;;;;;;;;;5064844;28;20091;-58
2023/10/17 10:18:17;;;;;;;4.13;1.50;;;;;;;;;;5063014;28;20484;-57
2023/10/17 10:21:12;;;;;;;1.95;1.23;;;;;;;;;;5062158;28;20123;-58
2023/10/17 10:23:42;;;;;;;1.70;1.20;;;;;;;;;;5061756;28;20053;-59
2023/10/17 10:26:11;;;;;;;1.35;1.25;;;;;;;;;;5060872;28;20166;-58
2023/10/17 10:28:37;;;;;;;2.13;1.13;;;;;;;;;;5062117;28;20032;-58
2023/10/17 10:31:21;;;;;;;1.27;1.00;;;;;;;;;;5062177;28;20621;-58
2023/10/17 10:33:51;;;;;;;1.23;0.82;;;;;;;;;;5060718;28;20044;-59
2023/10/17 10:36:22;;;;;;;0.80;0.80;;;;;;;;;;5059859;28;20301;-58
2023/10/17 10:38:48;;;;;;;1.00;0.82;;;;;;;;;;5058626;28;20041;-58
2023/10/17 10:41:15;;;;;;;1.15;1.05;;;;;;;;;;5064130;28;21485;-58
2023/10/17 10:43:41;;;;;;;1.98;1.05;;;;;;;;;;5045521;28;20109;-58
2023/10/17 10:46:08;;;;;;;1.73;1.10;;;;;;;;;;5063834;28;20040;-58
2023/10/17 10:48:34;;;;;;;1.45;0.85;;;;;;;;;;5065069;28;20037;-58
2023/10/17 10:51:01;;;;;;;1.40;1.00;;;;;;;;;;5061002;28;20044;-58
2023/10/17 10:53:32;;;;;;;1.80;0.98;;;;;;;;;;5063677;28;20044;-58
2023/10/17 10:56:02;;;;;;;1.40;0.85;;;;;;;;;;5063796;28;20051;-58
2023/10/17 10:58:29;;;;;;;2.88;1.20;;;;;;;;;;5061142;28;20271;-58
2023/10/17 11:00:58;;;;;;;1.98;1.08;;;;;;;;;;5063166;28;20136;-59
2023/10/17 11:03:24;;;;;;;2.20;1.25;;;;;;;;;;5061306;28;20057;-59
2023/10/17 11:05:52;;;;;;;1.90;1.15;;;;;;;;;;5064152;28;20093;-58
2023/10/17 11:08:19;;;;;;;3.65;1.20;;;;;;;;;;5055370;28;20046;-58
2023/10/17 11:10:46;;;;;;;3.33;1.30;;;;;;;;;;5061188;28;20716;-58
2023/10/17 11:13:12;;;;;;;2.15;1.10;;;;;;;;;;5055766;28;20056;-58
2023/10/17 11:15:43;;;;;;;2.53;1.60;;;;;;;;;;5060088;28;20059;-59
2023/10/17 11:18:10;;;;;;;3.47;1.53;;;;;;;;;;5064687;28;20072;-57
2023/10/17 11:20:36;;;;;;;1.02;0.85;;;;;;;;;;5061172;28;20044;-58
2023/10/17 11:23:07;;;;;;;1.65;1.20;;;;;;;;;;5063779;28;20425;-58
2023/10/17 11:25:34;;;;;;;1.77;1.13;;;;;;;;;;5063834;28;20048;-58
2023/10/17 11:28:01;;;;;;;1.25;0.95;;;;;;;;;;5063282;28;20178;-60
2023/10/17 11:30:40;;;;;;;1.73;0.95;;;;;;;;;;5064199;28;20040;-58
2023/10/17 11:33:28;;;;;;;0.88;0.88;;;;;;;;;;5064241;28;20033;-58
2023/10/17 11:35:54;;;;;;;1.70;0.95;;;;;;;;;;5062871;28;20046;-58
2023/10/17 11:38:37;;;;;;;2.92;1.15;;;;;;;;;;5059137;28;20036;-58
2023/10/17 11:41:04;;;;;;;2.03;0.90;;;;;;;;;;5061912;28;20037;-58
2023/10/17 11:43:34;;;;;;;1.85;0.98;;;;;;;;;;5064018;28;20037;-58
2023/10/17 11:46:12;;;;;;;1.67;1.08;;;;;;;;;;5063451;28;20522;-58
2023/10/17 11:48:43;;;;;;;0.80;0.63;;;;;;;;;;5064036;28;20086;-59
2023/10/17 11:51:15;;;;;;;0.73;0.70;;;;;;;;;;5062821;28;20087;-58
2023/10/17 11:54:03;;;;;;;0.60;0.60;;;;;;;;;;5063884;28;20090;-58
2023/10/17 11:56:29;;;;;;;0.75;0.50;;;;;;;;;;5062946;28;20055;-59
2023/10/17 11:58:56;;;;;;;1.80;0.95;;;;;;;;;;5063783;28;20037;-59
2023/10/17 12:01:22;;;;;;;1.67;1.58;;;;;;;;;;5063335;28;20036;-58
2023/10/17 12:03:52;;;;;;;2.45;1.10;;;;;;;;;;5062737;28;20136;-59
2023/10/17 12:06:21;;;;;;;1.38;1.08;;;;;;;;;;5063358;28;20128;-59
2023/10/17 12:08:47;;;;;;;2.00;0.88;;;;;;;;;;5062345;28;20102;-59
2023/10/17 12:11:13;;;;;;;0.98;0.75;;;;;;;;;;5062663;28;20037;-58
2023/10/17 12:13:40;;;;;;;2.33;0.80;;;;;;;;;;5064021;28;20389;-59
2023/10/17 12:16:09;;;;;;;0.60;0.60;;;;;;;;;;5063800;28;20108;-58
2023/10/17 12:18:36;;;;;;;0.93;0.68;;;;;;;;;;5061633;28;20036;-59
2023/10/17 12:21:04;;;;;;;0.95;0.50;;;;;;;;;;5063126;28;20036;-58
2023/10/17 12:23:30;;;;;;;1.33;0.95;;;;;;;;;;5058970;28;20198;-58
2023/10/17 12:26:07;;;;;;;1.42;0.75;;;;;;;;;;5063396;28;20041;-59
2023/10/17 12:28:34;;;;;;;3.47;0.90;;;;;;;;;;5063065;28;20037;-59
2023/10/17 12:31:01;;;;;;;2.60;1.13;;;;;;;;;;5062154;28;20098;-58
2023/10/17 12:33:27;;;;;;;2.13;0.95;;;;;;;;;;5063334;28;20404;-58
2023/10/17 12:35:53;;;;;;;0.70;0.70;;;;;;;;;;5063059;28;20056;-58
2023/10/17 12:38:25;;;;;;;1.60;0.98;;;;;;;;;;5062261;28;20043;-58
2023/10/17 12:40:52;;;;;;;;;;;;;;;;;;5060211;28;20410;-59
2023/10/17 12:43:19;;;;;;;1.23;0.88;;;;;;;;;;5062908;28;20049;-58
2023/10/17 12:45:45;;;;;;;1.45;0.88;;;;;;;;;;5062698;28;20052;-58
2023/10/17 12:48:11;;;;;;;1.95;1.00;;;;;;;;;;5063959;28;20047;-59
2023/10/17 12:50:43;;;;;;;1.25;0.70;;;;;;;;;;5062680;28;20040;-58
2023/10/17 12:53:13;;;;;;;0.68;0.68;;;;;;;;;;5062126;28;20052;-59
2023/10/17 12:55:40;;;;;;;2.50;0.98;;;;;;;;;;5062023;28;20059;-59
2023/10/17 12:58:18;;;;;;;0.80;0.80;;;;;;;;;;5062262;28;20071;-58
2023/10/17 13:00:47;;;;;;;1.33;1.00;;;;;;;;;;5055320;28;20108;-58
2023/10/17 13:03:14;;;;;;;1.33;0.77;;;;;;;;;;5061410;28;20144;-58
2023/10/17 13:05:40;;;;;;;1.25;0.80;;;;;;;;;;5062359;28;20075;-59
2023/10/17 13:08:07;;;;;;;2.45;0.73;;;;;;;;;;5064549;28;20508;-58
2023/10/17 13:10:33;;;;;;;0.80;0.80;;;;;;;;;;5061195;28;20087;-59
2023/10/17 13:13:00;;;;;;;0.88;0.88;;;;;;;;;;5064628;28;20036;-59
2023/10/17 13:15:26;;;;;;;1.40;0.93;;;;;;;;;;5059674;28;20145;-58
2023/10/17 13:17:55;;;;;;;1.15;0.90;;;;;;;;;;5063289;28;20072;-58
2023/10/17 13:20:28;;;;;;;2.05;0.80;;;;;;;;;;5062994;28;20048;-59
2023/10/17 13:22:55;;;;;;;1.70;0.90;;;;;;;;;;5058343;28;20439;-58
2023/10/17 13:25:21;;;;;;;1.23;0.80;;;;;;;;;;5065173;28;20040;-58
2023/10/17 13:27:48;;;;;;;0.77;0.75;;;;;;;;;;5063550;28;20051;-58
2023/10/17 13:30:14;;;;;;;1.70;0.90;;;;;;;;;;5065734;28;20845;-58
2023/10/17 13:32:40;;;;;;;2.25;0.80;;;;;;;;;;5067080;28;20029;-57
2023/10/17 13:35:06;;;;;;;3.63;0.95;;;;;;;;;;5062976;28;20446;-59
2023/10/17 13:37:32;;;;;;;0.65;0.47;;;;;;;;;;5062645;28;20036;-58
2023/10/17 13:40:01;;;;;;;0.88;0.88;;;;;;;;;;5065466;28;20036;-58
2023/10/17 13:42:27;;;;;;;1.02;0.68;;;;;;;;;;5061778;28;20040;-58
2023/10/17 13:44:54;;;;;;;1.27;1.10;;;;;;;;;;5058680;28;20503;-58
2023/10/17 13:47:21;;;;;;;1.63;0.90;;;;;;;;;;5065234;28;20048;-59
2023/10/17 13:49:47;;;;;;;5.28;1.40;;;;;;;;;;5057450;28;20036;-59
2023/10/17 13:52:17;;;;;;;1.08;0.90;;;;;;;;;;5061832;28;20033;-59
2023/10/17 13:54:44;;;;;;;1.00;0.90;;;;;;;;;;5059114;28;20047;-59
2023/10/17 13:57:10;;;;;;;1.15;1.00;;;;;;;;;;5060542;28;20052;-58
2023/10/17 13:59:39;;;;;;;1.70;0.73;;;;;;;;;;5058468;28;20150;-58
2023/10/17 14:02:08;;;;;;;0.70;0.70;;;;;;;;;;5062567;28;20470;-59
2023/10/17 14:04:36;;;;;;;0.70;0.70;;;;;;;;;;5061737;28;20044;-59
2023/10/17 14:07:03;;;;;;;1.60;0.90;;;;;;;;;;5041260;28;20048;-58
2023/10/17 14:09:30;;;;;;;1.75;0.82;;;;;;;;;;5061934;28;20125;-58
2023/10/17 14:11:56;;;;;;;0.73;0.73;;;;;;;;;;5058887;28;20032;-59
2023/10/17 14:14:25;;;;;;;0.90;0.82;;;;;;;;;;5062062;28;20033;-58
2023/10/17 14:16:52;;;;;;;1.48;1.13;;;;;;;;;;5064163;28;20037;-58
2023/10/17 14:19:28;;;;;;;1.00;0.95;;;;;;;;;;5060930;28;20607;-58
2023/10/17 14:27:24;;;;;;;1.33;0.90;;;;;;;;;;5062866;28;20048;-59
2023/10/17 14:29:51;;;;;;;2.00;0.90;;;;;;;;;;5059523;28;20083;-59
2023/10/17 14:32:23;;;;;;;0.35;0.35;;;;;;;;;;5045008;28;20037;-58
2023/10/17 14:34:49;;;;;;;0.60;0.60;;;;;;;;;;5063608;28;20511;-59
2023/10/17 14:37:17;;;;;;;1.27;0.70;;;;;;;;;;5065177;28;20554;-60
2023/10/17 14:39:43;;;;;;;0.40;0.40;;;;;;;;;;5066764;28;20051;-60
2023/10/17 14:42:10;;;;;;;0.88;0.55;;;;;;;;;;5064179;28;20098;-59
2023/10/17 14:44:37;;;;;;;0.50;0.50;;;;;;;;;;5062447;28;20115;-59
2023/10/17 14:47:06;;;;;;;2.13;0.47;;;;;;;;;;5057736;28;20045;-59
2023/10/17 14:49:32;;;;;;;0.57;0.47;;;;;;;;;;5063307;28;20086;-59
2023/10/17 14:51:58;;;;;;;0.77;0.43;;;;;;;;;;5061445;28;20043;-59
2023/10/17 14:54:24;;;;;;;0.70;0.60;;;;;;;;;;5061046;28;20044;-60
2023/10/17 14:56:51;;;;;;;0.88;0.50;;;;;;;;;;5062481;28;20075;-59
2023/10/17 14:59:20;;;;;;;0.75;0.50;;;;;;;;;;5056797;28;20496;-59
2023/10/17 15:01:46;;;;;;;1.05;0.47;;;;;;;;;;5060931;28;20052;-59
2023/10/17 15:04:12;;;;;;;0.57;0.45;;;;;;;;;;5054806;28;20048;-60
2023/10/17 15:06:38;;;;;;;1.05;0.40;;;;;;;;;;5060235;28;20137;-60
2023/10/17 15:09:08;;;;;;;0.60;0.47;;;;;;;;;;5064074;28;20144;-59
2023/10/17 15:11:34;;;;;;;1.17;0.60;;;;;;;;;;5058865;28;20316;-59
2023/10/17 15:14:00;;;;;;;0.95;0.50;;;;;;;;;;5054399;28;20423;-59
2023/10/17 15:16:27;;;;;;;0.70;0.40;;;;;;;;;;5056323;28;20047;-59
2023/10/17 15:18:54;;;;;;;0.30;0.30;;;;;;;;;;5061827;28;20370;-59
2023/10/17 15:21:21;;;;;;;0.20;0.20;;;;;;;;;;5061796;28;20029;-59
2023/10/17 15:23:47;;;;;;;0.35;0.20;;;;;;;;;;5062540;28;20094;-59
2023/10/17 15:26:13;;;;;;;0.35;0.28;;;;;;;;;;5062061;28;20032;-59
2023/10/17 15:28:46;;;;;;;0.30;0.30;;;;;;;;;;5058430;28;20090;-59
2023/10/17 15:31:11;;;;;;;;;;;;;;;;;;5059210;28;20364;-59
2023/10/17 15:33:38;;;;;;;0.10;0.10;;;;;;;;;;5059318;28;19952;-59
2023/10/17 15:36:11;;;;;;;0.25;0.20;;;;;;;;;;5052742;28;20052;-59
2023/10/17 15:38:41;;;;;;;0.10;0.10;;;;;;;;;;5054133;28;20495;-59
2023/10/17 15:41:08;;;;;;;0.20;0.20;;;;;;;;;;5060567;28;20473;-59
2023/10/17 15:43:34;;;;;;;0.10;0.10;;;;;;;;;;5059591;28;20132;-60
2023/10/17 15:46:00;;;;;;;0.20;0.20;;;;;;;;;;5040982;28;20143;-59
2023/10/17 15:48:27;;;;;;;0.20;0.20;;;;;;;;;;5062282;28;20032;-60
2023/10/17 15:50:56;;;;;;;0.10;0.10;;;;;;;;;;5061915;28;20147;-59
2023/10/17 15:53:26;;;;;;;0.20;0.20;;;;;;;;;;5057972;28;20470;-60
2023/10/17 15:55:53;;;;;;;0.00;0.00;;;;;;;;;;5043138;28;20051;-59
2023/10/17 15:58:19;;;;;;;0.20;0.20;;;;;;;;;;5044066;28;20055;-59
2023/10/17 16:00:46;;;;;;;0.30;0.22;;;;;;;;;;5058716;28;20037;-59
2023/10/17 16:03:14;;;;;;;0.30;0.30;;;;;;;;;;5062854;28;20140;-59
2023/10/17 16:05:40;;;;;;;0.73;0.40;;;;;;;;;;5056591;28;20090;-59
2023/10/17 16:08:06;;;;;;;1.23;0.40;;;;;;;;;;5063700;28;20044;-59
2023/10/17 16:10:32;;;;;;;0.40;0.38;;;;;;;;;;5062431;28;20036;-59
2023/10/17 16:13:00;;;;;;;0.10;0.10;;;;;;;;;;5059258;28;20036;-59
2023/10/17 16:15:26;;;;;;;0.20;0.20;;;;;;;;;;5058447;28;20389;-59
2023/10/17 16:17:52;;;;;;;0.77;0.30;;;;;;;;;;5061466;28;20048;-58
2023/10/17 16:20:19;;;;;;;0.30;0.30;;;;;;;;;;5063306;28;20052;-59
2023/10/17 16:22:45;;;;;;;0.88;0.30;;;;;;;;;;5062276;28;20154;-59
2023/10/17 16:25:13;;;;;;;0.52;0.45;;;;;;;;;;5064449;28;20048;-59
2023/10/17 16:27:39;;;;;;;0.20;0.20;;;;;;;;;;5061613;28;20231;-59
2023/10/17 16:30:10;;;;;;;0.10;0.10;;;;;;;;;;5061998;28;20119;-59
2023/10/17 16:32:36;;;;;;;0.60;0.30;;;;;;;;;;5058370;28;20436;-60
2023/10/17 16:35:04;;;;;;;0.25;0.20;;;;;;;;;;5044251;28;20058;-59
2023/10/17 16:37:32;;;;;;;0.20;0.20;;;;;;;;;;5058546;28;20279;-59
2023/10/17 16:39:58;;;;;;;0.20;0.20;;;;;;;;;;5046537;28;20048;-59
2023/10/17 16:42:25;;;;;;;0.47;0.20;;;;;;;;;;5041292;28;20044;-60
2023/10/17 16:44:51;;;;;;;0.20;0.20;;;;;;;;;;5058840;28;20041;-60
2023/10/17 16:47:19;;;;;;;0.30;0.30;;;;;;;;;;5064257;28;20091;-59
2023/10/17 16:49:45;;;;;;;0.38;0.30;;;;;;;;;;5059886;28;20036;-59
2023/10/17 16:52:12;;;;;;;0.30;0.20;;;;;;;;;;5065185;28;20519;-59
2023/10/17 16:54:38;;;;;;;0.32;0.20;;;;;;;;;;5062936;28;20047;-59
2023/10/17 16:57:08;;;;;;;0.38;0.30;;;;;;;;;;5063505;28;20036;-59
2023/10/17 16:59:34;;;;;;;0.20;0.20;;;;;;;;;;5062634;28;20609;-60
2023/10/17 17:02:00;;;;;;;0.88;0.57;;;;;;;;;;5046536;28;20268;-59
2023/10/17 17:04:26;;;;;;;0.57;0.35;;;;;;;;;;5058308;28;20045;-59
2023/10/17 17:06:52;;;;;;;0.45;0.40;;;;;;;;;;5064622;28;20043;-59
2023/10/17 17:09:21;;;;;;;0.45;0.40;;;;;;;;;;5066441;28;20472;-59
2023/10/17 17:11:48;;;;;;;0.30;0.30;;;;;;;;;;5062632;28;20123;-60
2023/10/17 17:14:18;;;;;;;0.50;0.50;;;;;;;;;;5061742;28;20401;-59
2023/10/17 17:16:45;;;;;;;0.82;0.52;;;;;;;;;;5059103;28;20052;-59